Ken Ryu — H9RG — position and weather

sailwx.info

Track history (hours):
 
Tides and Currents Weather Stations Pressure Air Temp Water Temp Dewpoint Dewpoint Depression Visibility Wind Speed Wind Dir Waves Ship Positions

Ken Ryu

Last reported at 2017-Sep-04 03:53 UTC. Time now 2017-Sep-26 00:11 UTC.
Position N 31°17' E 032°22'.
Warning: this ship's position is 21 days out of date.

Length 171 m; draft 10.4 m.

Type: Cargo ship. MMSI: 372936000.

Date/timePositionNaut miles runAvg speedWind from/ knotsBaromVisibWave heightAir tempDewpointWater temp
2017-Sep-04 03:53N 31°17' E 032°22'3 8.0
2017-Sep-04 03:30N 31°20' E 032°22'6 9.2
2017-Sep-04 02:53N 31°25' E 032°24'4 8.8
2017-Sep-04 02:27N 31°24' E 032°20'2 0.4
2017-Sep-03 19:54N 31°25' E 032°22'41 9.3
2017-Sep-03 15:29N 31°52' E 031°46'  
2017-Aug-31 21:20N 35°52' E 014°60'1012.1
2017-Aug-31 20:30N 35°55' E 014°48'1 0.4
2017-Aug-31 18:15N 35°55' E 014°47'0 0.0
2017-Aug-31 17:03N 35°55' E 014°47'0 0.1
2017-Aug-31 17:00N 35°55' E 014°47'0 0.0
2017-Aug-31 15:57N 35°55' E 014°47'0 0.1
2017-Aug-31 15:21N 35°55' E 014°47'0 0.1
2017-Aug-31 13:38N 35°55' E 014°46'0 0.3
2017-Aug-31 13:29N 35°55' E 014°46'2 3.4
2017-Aug-31 13:00N 35°53' E 014°47'510.5
2017-Aug-31 12:30N 35°49' E 014°44'612.3
2017-Aug-31 12:00N 35°44' E 014°39'611.8
2017-Aug-31 11:30N 35°41' E 014°33'612.2
2017-Aug-31 10:59N 35°39' E 014°25'612.4
2017-Aug-31 10:30N 35°36' E 014°19'612.2
2017-Aug-31 10:00N 35°33' E 014°12'612.1
2017-Aug-31 09:30N 35°30' E 014°06'1012.0
2017-Aug-31 08:42N 35°26' E 013°55'211.9
2017-Aug-31 08:30N 35°25' E 013°53'811.8
2017-Aug-31 07:50N 35°21' E 013°44'411.9
2017-Aug-31 07:28N 35°19' E 013°39'711.9
2017-Aug-31 06:53N 35°16' E 013°32'6811.7
2017-Aug-31 01:05N 34°45' E 012°18'112.0
2017-Aug-31 00:59N 34°44' E 012°16'712.0
2017-Aug-31 00:25N 34°41' E 012°09'612.0
2017-Aug-30 23:57N 34°39' E 012°03'2011.9
2017-Aug-30 22:15N 34°30' E 011°41'311.9
2017-Aug-30 22:00N 34°30' E 011°37'1511.9
2017-Aug-30 20:46N 34°27' E 011°20'411.9
2017-Aug-30 20:26N 34°26' E 011°15'511.9
2017-Aug-30 20:00N 34°25' E 011°09'612.1
2017-Aug-30 19:30N 34°23' E 011°02'611.6
2017-Aug-30 19:00N 34°25' E 010°55'20 3.3
2017-Aug-30 13:04N 34°44' E 010°47'0 0.0
2017-Aug-30 12:53N 34°44' E 010°47'0 0.0
2017-Aug-30 12:30N 34°44' E 010°47'0 0.0
2017-Aug-30 11:59N 34°44' E 010°47'0 0.0
2017-Aug-30 11:29N 34°44' E 010°47'0 0.0
2017-Aug-30 07:01N 34°44' E 010°47'0 0.0
2017-Aug-30 06:56N 34°44' E 010°47'0 0.0
2017-Aug-30 06:00N 34°44' E 010°47'0 0.0
2017-Aug-29 20:57N 34°44' E 010°47'0 0.0
2017-Aug-29 20:03N 34°44' E 010°47'0 0.0
2017-Aug-29 14:00N 34°44' E 010°47'0 0.0
2017-Aug-29 11:25N 34°44' E 010°47'0 0.0
2017-Aug-29 11:00N 34°44' E 010°47'0 0.0
2017-Aug-29 10:07N 34°44' E 010°47'0 0.0
2017-Aug-29 10:00N 34°44' E 010°47'0 0.0
2017-Aug-28 16:16N 34°44' E 010°47'0 0.0
2017-Aug-28 14:39N 34°44' E 010°47'0 0.0
2017-Aug-28 14:26N 34°44' E 010°47'0 0.0
2017-Aug-28 14:00N 34°44' E 010°47'0 0.0
2017-Aug-28 13:07N 34°44' E 010°47'0 0.0
2017-Aug-28 12:07N 34°44' E 010°47'0 0.0
2017-Aug-28 00:18N 34°44' E 010°47'0 0.0
2017-Aug-27 23:59N 34°44' E 010°47'0 0.0
2017-Aug-27 20:30N 34°44' E 010°47'0 0.0
2017-Aug-27 14:56N 34°44' E 010°47'0 0.0
2017-Aug-27 14:30N 34°44' E 010°47'0 0.0
2017-Aug-27 13:55N 34°44' E 010°47'0 0.0
2017-Aug-27 12:14N 34°44' E 010°47'0 0.0
2017-Aug-27 12:01N 34°44' E 010°47'0 0.0
2017-Aug-27 11:23N 34°44' E 010°47'0 0.0
2017-Aug-27 11:00N 34°44' E 010°47'0 0.0
2017-Aug-27 10:30N 34°44' E 010°47'0 0.0
2017-Aug-27 10:00N 34°44' E 010°47'0 0.0
2017-Aug-26 14:55N 34°44' E 010°47'  
Track history (hours):
 
Tides and Currents Weather Stations Pressure Air Temp Water Temp Dewpoint Dewpoint Depression Visibility Wind Speed Wind Dir Waves Ship Positions

Ken Ryu

Last reported at 2017-Sep-04 03:53 UTC. Time now 2017-Sep-26 00:11 UTC.
Position N 31°17' E 032°22'.
Warning: this ship's position is 21 days out of date.

Length 171 m; draft 10.4 m.

Type: Cargo ship. MMSI: 372936000.

Date/timePositionNaut miles runAvg speedWind from/ knotsBaromVisibWave heightAir tempDewpointWater temp
2017-Sep-04 03:53N 31°17' E 032°22'3 8.0
2017-Sep-04 03:30N 31°20' E 032°22'6 9.2
2017-Sep-04 02:53N 31°25' E 032°24'4 8.8
2017-Sep-04 02:27N 31°24' E 032°20'2 0.4
2017-Sep-03 19:54N 31°25' E 032°22'41 9.3
2017-Sep-03 15:29N 31°52' E 031°46'  
2017-Aug-31 21:20N 35°52' E 014°60'1012.1
2017-Aug-31 20:30N 35°55' E 014°48'1 0.4
2017-Aug-31 18:15N 35°55' E 014°47'0 0.0
2017-Aug-31 17:03N 35°55' E 014°47'0 0.1
2017-Aug-31 17:00N 35°55' E 014°47'0 0.0
2017-Aug-31 15:57N 35°55' E 014°47'0 0.1
2017-Aug-31 15:21N 35°55' E 014°47'0 0.1
2017-Aug-31 13:38N 35°55' E 014°46'0 0.3
2017-Aug-31 13:29N 35°55' E 014°46'2 3.4
2017-Aug-31 13:00N 35°53' E 014°47'510.5
2017-Aug-31 12:30N 35°49' E 014°44'612.3
2017-Aug-31 12:00N 35°44' E 014°39'611.8
2017-Aug-31 11:30N 35°41' E 014°33'612.2
2017-Aug-31 10:59N 35°39' E 014°25'612.4
2017-Aug-31 10:30N 35°36' E 014°19'612.2
2017-Aug-31 10:00N 35°33' E 014°12'612.1
2017-Aug-31 09:30N 35°30' E 014°06'1012.0
2017-Aug-31 08:42N 35°26' E 013°55'211.9
2017-Aug-31 08:30N 35°25' E 013°53'811.8
2017-Aug-31 07:50N 35°21' E 013°44'411.9
2017-Aug-31 07:28N 35°19' E 013°39'711.9
2017-Aug-31 06:53N 35°16' E 013°32'6811.7
2017-Aug-31 01:05N 34°45' E 012°18'112.0
2017-Aug-31 00:59N 34°44' E 012°16'712.0
2017-Aug-31 00:25N 34°41' E 012°09'612.0
2017-Aug-30 23:57N 34°39' E 012°03'2011.9
2017-Aug-30 22:15N 34°30' E 011°41'311.9
2017-Aug-30 22:00N 34°30' E 011°37'1511.9
2017-Aug-30 20:46N 34°27' E 011°20'411.9
2017-Aug-30 20:26N 34°26' E 011°15'511.9
2017-Aug-30 20:00N 34°25' E 011°09'612.1
2017-Aug-30 19:30N 34°23' E 011°02'611.6
2017-Aug-30 19:00N 34°25' E 010°55'20 3.3
2017-Aug-30 13:04N 34°44' E 010°47'0 0.0
2017-Aug-30 12:53N 34°44' E 010°47'0 0.0
2017-Aug-30 12:30N 34°44' E 010°47'0 0.0
2017-Aug-30 11:59N 34°44' E 010°47'0 0.0
2017-Aug-30 11:29N 34°44' E 010°47'0 0.0
2017-Aug-30 07:01N 34°44' E 010°47'0 0.0
2017-Aug-30 06:56N 34°44' E 010°47'0 0.0
2017-Aug-30 06:00N 34°44' E 010°47'0 0.0
2017-Aug-29 20:57N 34°44' E 010°47'0 0.0
2017-Aug-29 20:03N 34°44' E 010°47'0 0.0
2017-Aug-29 14:00N 34°44' E 010°47'0 0.0
2017-Aug-29 11:25N 34°44' E 010°47'0 0.0
2017-Aug-29 11:00N 34°44' E 010°47'0 0.0
2017-Aug-29 10:07N 34°44' E 010°47'0 0.0
2017-Aug-29 10:00N 34°44' E 010°47'0 0.0
2017-Aug-28 16:16N 34°44' E 010°47'0 0.0
2017-Aug-28 14:39N 34°44' E 010°47'0 0.0
2017-Aug-28 14:26N 34°44' E 010°47'0 0.0
2017-Aug-28 14:00N 34°44' E 010°47'0 0.0
2017-Aug-28 13:07N 34°44' E 010°47'0 0.0
2017-Aug-28 12:07N 34°44' E 010°47'0 0.0
2017-Aug-28 00:18N 34°44' E 010°47'0 0.0
2017-Aug-27 23:59N 34°44' E 010°47'0 0.0
2017-Aug-27 20:30N 34°44' E 010°47'0 0.0
2017-Aug-27 14:56N 34°44' E 010°47'0 0.0
2017-Aug-27 14:30N 34°44' E 010°47'0 0.0
2017-Aug-27 13:55N 34°44' E 010°47'0 0.0
2017-Aug-27 12:14N 34°44' E 010°47'0 0.0
2017-Aug-27 12:01N 34°44' E 010°47'0 0.0
2017-Aug-27 11:23N 34°44' E 010°47'0 0.0
2017-Aug-27 11:00N 34°44' E 010°47'0 0.0
2017-Aug-27 10:30N 34°44' E 010°47'0 0.0
2017-Aug-27 10:00N 34°44' E 010°47'0 0.0
2017-Aug-26 14:55N 34°44' E 010°47'  

Dump ship's entire track history